createdAt,value
2018-09-27T00:01:41.170Z,12.56
2018-09-27T00:04:10.052Z,12.59
2018-09-27T00:06:38.918Z,12.54
2018-09-27T00:09:08.448Z,12.54
2018-09-27T00:11:37.254Z,12.60
2018-09-27T00:14:06.092Z,12.63
2018-09-27T00:16:34.873Z,12.67
2018-09-27T00:19:03.659Z,12.72
2018-09-27T00:21:32.494Z,12.72
2018-09-27T00:24:01.655Z,12.74
2018-09-27T00:26:31.095Z,12.77
2018-09-27T00:28:59.914Z,12.79
2018-09-27T00:31:28.780Z,12.92
2018-09-27T00:33:57.651Z,12.97
2018-09-27T00:36:26.561Z,13.13
2018-09-27T00:38:55.340Z,13.11
2018-09-27T00:41:24.310Z,13.20
2018-09-27T00:43:53.217Z,13.31
2018-09-27T00:46:22.061Z,13.32
2018-09-27T00:48:50.859Z,13.37
2018-09-27T00:51:19.701Z,13.34
2018-09-27T00:53:48.460Z,13.23
2018-09-27T00:56:17.216Z,13.22
2018-09-27T00:58:45.967Z,13.21
2018-09-27T01:01:15.143Z,13.21
2018-09-27T01:03:44.016Z,13.14
2018-09-27T01:06:13.837Z,13.20
2018-09-27T01:08:42.690Z,13.23
2018-09-27T01:11:11.535Z,13.26
2018-09-27T01:13:40.394Z,13.29
2018-09-27T01:16:09.196Z,13.27
2018-09-27T01:18:38.023Z,13.38
2018-09-27T01:21:06.987Z,13.38
2018-09-27T01:23:35.871Z,13.50
2018-09-27T01:26:04.656Z,13.54
2018-09-27T01:28:33.571Z,13.43
2018-09-27T01:31:02.720Z,13.51
2018-09-27T01:33:31.552Z,13.51
2018-09-27T01:36:00.346Z,13.51
2018-09-27T01:38:29.240Z,13.57
2018-09-27T01:40:58.131Z,13.56
2018-09-27T01:43:27.221Z,13.57
2018-09-27T01:45:56.117Z,13.58
2018-09-27T01:48:25.317Z,13.55
2018-09-27T01:50:54.139Z,13.60
2018-09-27T01:53:22.977Z,13.68
2018-09-27T01:55:52.122Z,13.71
2018-09-27T01:58:20.910Z,13.77
2018-09-27T02:00:49.746Z,13.73
2018-09-27T02:03:19.971Z,13.74
2018-09-27T02:05:48.854Z,13.75
2018-09-27T02:08:17.709Z,13.68
2018-09-27T02:10:46.643Z,13.72
2018-09-27T02:13:15.510Z,13.78
2018-09-27T02:15:44.312Z,13.71
2018-09-27T02:18:13.160Z,13.77
2018-09-27T02:20:41.990Z,13.85
2018-09-27T02:23:11.569Z,13.81
2018-09-27T02:25:40.382Z,13.76
2018-09-27T02:28:09.247Z,13.71
2018-09-27T02:30:39.370Z,13.72
2018-09-27T02:33:08.260Z,13.66
2018-09-27T02:35:37.245Z,13.58
2018-09-27T02:38:06.031Z,13.54
2018-09-27T02:40:34.866Z,13.53
2018-09-27T02:43:03.655Z,13.58
2018-09-27T02:45:32.468Z,13.58
2018-09-27T02:48:01.283Z,13.57
2018-09-27T02:50:30.212Z,13.54
2018-09-27T02:52:59.073Z,13.52
2018-09-27T02:55:27.937Z,13.47
2018-09-27T02:57:56.695Z,13.46
2018-09-27T03:00:25.559Z,13.41
2018-09-27T03:02:54.391Z,13.36
2018-09-27T03:05:23.274Z,13.35
2018-09-27T03:07:52.133Z,13.30
2018-09-27T03:10:20.962Z,13.24
2018-09-27T03:12:49.787Z,13.17
2018-09-27T03:15:18.632Z,13.16
2018-09-27T03:17:47.432Z,13.10
2018-09-27T03:20:16.260Z,13.07
2018-09-27T03:22:45.170Z,13.06
2018-09-27T03:25:14.005Z,13.02
2018-09-27T03:27:42.848Z,13.06
2018-09-27T03:30:11.661Z,13.05
2018-09-27T03:32:40.502Z,13.15
2018-09-27T03:35:09.363Z,13.31
2018-09-27T03:37:38.251Z,13.42
2018-09-27T03:40:11.111Z,13.52
2018-09-27T03:42:39.939Z,13.65
2018-09-27T03:45:08.915Z,13.71
2018-09-27T03:47:38.261Z,13.75
2018-09-27T03:50:07.142Z,13.80
2018-09-27T03:52:35.910Z,13.86
2018-09-27T03:55:04.834Z,13.85
2018-09-27T03:57:33.643Z,13.88
2018-09-27T04:00:02.385Z,13.94
2018-09-27T04:02:31.212Z,13.97
2018-09-27T04:05:00.027Z,13.99
2018-09-27T04:07:28.857Z,13.98
2018-09-27T04:09:57.726Z,14.05
2018-09-27T04:12:26.585Z,14.07
2018-09-27T04:14:56.179Z,14.08
2018-09-27T04:17:25.265Z,14.12
2018-09-27T04:19:54.335Z,14.17
2018-09-27T04:22:23.116Z,14.22
2018-09-27T04:24:51.923Z,14.14
2018-09-27T04:27:20.778Z,14.13
2018-09-27T04:29:49.626Z,14.17
2018-09-27T04:32:18.457Z,14.05
2018-09-27T04:34:47.283Z,13.99
2018-09-27T04:37:16.161Z,13.96
2018-09-27T04:39:45.126Z,13.96
2018-09-27T04:42:14.045Z,14.06
2018-09-27T04:44:44.130Z,13.83
2018-09-27T04:47:12.980Z,13.96
2018-09-27T04:49:47.410Z,13.91
2018-09-27T04:52:16.152Z,13.89
2018-09-27T04:54:45.372Z,13.96
2018-09-27T04:57:17.081Z,13.77
2018-09-27T04:59:45.890Z,13.88
2018-09-27T05:02:14.715Z,13.74
2018-09-27T05:04:43.579Z,13.69
2018-09-27T05:07:12.421Z,13.69
2018-09-27T05:09:41.425Z,13.77
2018-09-27T05:12:10.379Z,13.78
2018-09-27T05:14:41.115Z,13.79
2018-09-27T05:17:10.137Z,13.89
2018-09-27T05:19:38.949Z,13.97
2018-09-27T05:22:07.855Z,14.00
2018-09-27T05:24:36.680Z,14.02
2018-09-27T05:27:07.765Z,14.05
2018-09-27T05:29:36.548Z,14.01
2018-09-27T05:32:05.612Z,14.10
2018-09-27T05:34:34.423Z,14.15
2018-09-27T05:37:03.340Z,14.21
2018-09-27T05:39:32.356Z,14.31
2018-09-27T05:42:05.897Z,14.24
2018-09-27T05:44:34.721Z,14.24
2018-09-27T05:47:03.555Z,14.28
2018-09-27T05:49:32.441Z,14.25
2018-09-27T05:52:01.379Z,14.16
2018-09-27T05:54:30.317Z,14.19
2018-09-27T05:56:59.575Z,14.21
2018-09-27T05:59:28.434Z,14.22
2018-09-27T06:01:57.266Z,14.19
2018-09-27T06:04:26.077Z,14.24
2018-09-27T06:06:55.026Z,14.25
2018-09-27T06:09:23.762Z,14.37
2018-09-27T06:11:52.752Z,14.35
2018-09-27T06:14:23.537Z,14.24
2018-09-27T06:16:52.667Z,14.34
2018-09-27T06:19:21.581Z,14.34
2018-09-27T06:21:50.396Z,14.45
2018-09-27T06:24:19.390Z,14.71
2018-09-27T06:26:48.279Z,14.98
2018-09-27T06:29:17.323Z,15.12
2018-09-27T06:31:49.079Z,15.19
2018-09-27T06:34:18.028Z,15.08
2018-09-27T06:36:46.827Z,15.05
2018-09-27T06:39:15.804Z,15.12
2018-09-27T06:41:44.726Z,15.22
2018-09-27T06:44:13.619Z,15.27
2018-09-27T06:46:42.418Z,15.30
2018-09-27T06:49:11.692Z,15.45
2018-09-27T06:51:40.589Z,15.92
2018-09-27T06:54:09.593Z,16.49
2018-09-27T06:56:38.430Z,16.67
2018-09-27T06:59:08.834Z,16.65
2018-09-27T07:01:37.654Z,16.75
2018-09-27T07:04:06.567Z,16.81
2018-09-27T07:06:36.208Z,16.95
2018-09-27T07:09:07.890Z,17.40
2018-09-27T07:11:36.736Z,18.22
2018-09-27T07:14:05.655Z,18.56
2018-09-27T07:16:34.534Z,18.39
2018-09-27T07:19:03.391Z,19.28
2018-09-27T07:21:32.230Z,19.33
2018-09-27T07:24:01.257Z,18.74
2018-09-27T07:26:30.126Z,18.47
2018-09-27T07:31:51.570Z,18.65
2018-09-27T07:34:20.497Z,18.70
2018-09-27T07:36:49.446Z,18.44
2018-09-27T07:39:18.201Z,18.45
2018-09-27T07:41:47.062Z,18.16
2018-09-27T07:44:15.789Z,18.42
2018-09-27T07:46:44.603Z,18.32
2018-09-27T07:49:15.595Z,18.95
2018-09-27T07:51:44.511Z,19.34
2018-09-27T07:54:14.615Z,19.63
2018-09-27T07:56:43.434Z,19.97
2018-09-27T07:59:12.344Z,20.61
2018-09-27T08:01:41.704Z,20.68
2018-09-27T08:04:10.746Z,21.50
2018-09-27T08:06:39.596Z,21.45
2018-09-27T08:09:09.508Z,22.10
2018-09-27T08:11:38.962Z,22.28
2018-09-27T08:14:07.841Z,22.84
2018-09-27T08:16:36.623Z,23.18
2018-09-27T08:19:05.583Z,22.34
2018-09-27T08:21:34.480Z,22.16
2018-09-27T08:24:03.717Z,23.40
2018-09-27T08:26:32.581Z,23.07
2018-09-27T08:29:01.351Z,23.03
2018-09-27T08:31:30.798Z,23.08
2018-09-27T08:33:59.515Z,24.25
2018-09-27T08:36:28.492Z,23.60
2018-09-27T08:38:58.015Z,23.89
2018-09-27T08:41:26.852Z,24.13
2018-09-27T08:43:55.921Z,24.02
2018-09-27T08:46:26.272Z,23.71
2018-09-27T08:48:55.366Z,24.61
2018-09-27T08:51:24.282Z,24.84
2018-09-27T08:53:53.193Z,25.92
2018-09-27T08:56:22.514Z,25.66
2018-09-27T08:58:51.314Z,26.72
2018-09-27T09:01:20.941Z,26.69
2018-09-27T09:03:50.635Z,26.79
2018-09-27T09:06:19.431Z,26.17
2018-09-27T09:08:48.602Z,25.30
2018-09-27T09:11:17.490Z,24.81
2018-09-27T09:13:46.254Z,24.91
2018-09-27T09:16:15.192Z,25.08
2018-09-27T09:18:44.030Z,25.18
2018-09-27T09:21:12.890Z,25.45
2018-09-27T09:23:41.755Z,25.46
2018-09-27T09:26:10.696Z,25.85
2018-09-27T09:28:39.857Z,25.72
2018-09-27T09:31:08.667Z,26.23
2018-09-27T09:33:37.581Z,26.40
2018-09-27T09:36:06.539Z,26.64
2018-09-27T09:38:35.454Z,25.92
2018-09-27T09:41:04.280Z,26.40
2018-09-27T09:43:33.128Z,26.40
2018-09-27T09:46:02.055Z,25.52
2018-09-27T09:48:30.999Z,25.00
2018-09-27T09:50:59.787Z,25.33
2018-09-27T09:53:28.765Z,26.17
2018-09-27T09:55:57.557Z,26.51
2018-09-27T09:58:26.354Z,26.55
2018-09-27T10:00:55.175Z,26.45
2018-09-27T10:03:27.871Z,25.03
2018-09-27T10:05:56.729Z,25.03
2018-09-27T10:08:25.594Z,24.85
2018-09-27T10:10:54.578Z,24.79
2018-09-27T10:13:23.350Z,24.81
2018-09-27T10:15:52.743Z,25.07
2018-09-27T10:18:21.600Z,25.21
2018-09-27T10:20:50.396Z,25.73
2018-09-27T10:23:19.193Z,25.73
2018-09-27T10:25:47.990Z,25.36
2018-09-27T10:28:17.107Z,25.01
2018-09-27T10:30:46.023Z,25.07
2018-09-27T10:33:14.925Z,25.20
2018-09-27T10:35:43.839Z,25.42
2018-09-27T10:38:20.033Z,25.78
2018-09-27T10:40:57.125Z,26.12
2018-09-27T10:43:26.902Z,25.45
2018-09-27T10:45:56.345Z,24.89
2018-09-27T10:48:25.838Z,24.67
2018-09-27T10:50:54.722Z,25.36
2018-09-27T10:53:23.602Z,26.14
2018-09-27T10:55:54.023Z,26.08
2018-09-27T10:58:23.291Z,25.91
2018-09-27T11:00:52.220Z,25.55
2018-09-27T11:03:21.279Z,25.65
2018-09-27T11:05:50.236Z,26.03
2018-09-27T11:08:19.060Z,25.75
2018-09-27T11:10:48.273Z,25.37
2018-09-27T11:13:17.107Z,25.28
2018-09-27T11:15:45.845Z,25.38
2018-09-27T11:18:14.771Z,24.45
2018-09-27T11:20:47.578Z,23.90
2018-09-27T11:23:16.805Z,24.21
2018-09-27T11:25:45.738Z,24.90
2018-09-27T11:28:14.705Z,24.80
2018-09-27T11:30:44.422Z,25.35
2018-09-27T11:33:14.415Z,25.44
2018-09-27T11:35:45.107Z,25.54
2018-09-27T11:38:14.014Z,25.84
2018-09-27T11:40:42.851Z,26.15
2018-09-27T11:43:12.048Z,25.78
2018-09-27T11:45:40.968Z,25.72
2018-09-27T11:48:10.433Z,25.74
2018-09-27T11:50:39.413Z,25.94
2018-09-27T11:53:08.488Z,25.32
2018-09-27T11:55:37.462Z,25.06
2018-09-27T11:58:06.480Z,25.37
2018-09-27T12:00:35.553Z,25.36
2018-09-27T12:03:04.472Z,25.44
2018-09-27T12:05:33.335Z,25.63
2018-09-27T12:08:03.148Z,25.12
2018-09-27T12:10:32.047Z,25.16
2018-09-27T12:13:01.553Z,25.20
2018-09-27T12:15:30.430Z,25.18
2018-09-27T12:17:59.377Z,25.41
2018-09-27T12:20:28.299Z,25.89
2018-09-27T12:22:57.368Z,25.58
2018-09-27T12:25:26.375Z,25.02
2018-09-27T12:27:55.338Z,25.06
2018-09-27T12:30:24.197Z,24.64
2018-09-27T12:32:53.137Z,25.41
2018-09-27T12:35:22.059Z,25.55
2018-09-27T12:37:56.989Z,25.41
2018-09-27T12:40:25.801Z,25.30
2018-09-27T12:42:54.762Z,25.19
2018-09-27T12:45:23.665Z,25.14
2018-09-27T12:47:52.503Z,25.18
2018-09-27T12:50:21.482Z,25.50
2018-09-27T12:52:50.720Z,25.52
2018-09-27T12:55:21.047Z,25.41
2018-09-27T12:57:51.288Z,25.92
2018-09-27T13:00:21.134Z,26.13
2018-09-27T13:02:50.757Z,25.94
2018-09-27T13:05:19.624Z,25.99
2018-09-27T13:07:49.189Z,25.79
2018-09-27T13:10:18.179Z,25.46
2018-09-27T13:12:47.008Z,25.57
2018-09-27T13:15:15.840Z,25.74
2018-09-27T13:17:44.722Z,26.17
2018-09-27T13:20:13.545Z,26.55
2018-09-27T13:22:42.533Z,26.63
2018-09-27T13:25:11.694Z,27.05
2018-09-27T13:27:40.484Z,26.93
2018-09-27T13:30:09.376Z,26.63
2018-09-27T13:32:38.272Z,26.76
2018-09-27T13:35:07.607Z,26.86
2018-09-27T13:37:36.500Z,26.45
2018-09-27T13:40:05.589Z,26.26
2018-09-27T13:42:34.430Z,26.30
2018-09-27T13:45:03.331Z,25.98
2018-09-27T13:47:34.067Z,26.26
2018-09-27T13:50:02.943Z,26.27
2018-09-27T13:52:32.201Z,26.22
2018-09-27T13:55:03.664Z,26.03
2018-09-27T13:57:33.458Z,25.91
2018-09-27T14:00:02.371Z,26.43
2018-09-27T14:02:31.183Z,26.45
2018-09-27T14:05:00.649Z,26.49
2018-09-27T14:07:31.644Z,26.31
2018-09-27T14:10:00.838Z,26.15
2018-09-27T14:12:32.115Z,26.07
2018-09-27T14:15:00.959Z,26.27
2018-09-27T14:17:29.907Z,26.36
2018-09-27T14:19:58.769Z,26.44
2018-09-27T14:22:31.303Z,26.30
2018-09-27T14:25:00.166Z,26.28
2018-09-27T14:27:29.052Z,25.93
2018-09-27T14:29:57.906Z,25.95
2018-09-27T14:32:26.847Z,25.91
2018-09-27T14:34:55.789Z,26.10
2018-09-27T14:37:24.823Z,26.22
2018-09-27T14:39:58.547Z,26.19
2018-09-27T14:42:27.453Z,25.72
2018-09-27T14:44:56.508Z,25.81
2018-09-27T14:47:25.391Z,25.89
2018-09-27T14:49:54.268Z,25.77
2018-09-27T14:52:23.046Z,25.92
2018-09-27T14:54:51.911Z,25.97
2018-09-27T14:57:20.974Z,25.87
2018-09-27T14:59:58.635Z,25.95
2018-09-27T15:02:27.528Z,25.76
2018-09-27T15:04:56.318Z,25.77
2018-09-27T15:07:25.548Z,25.93
2018-09-27T15:12:55.305Z,25.64
2018-09-27T15:15:26.205Z,25.50
2018-09-27T15:17:56.010Z,25.60
2018-09-27T15:20:26.355Z,25.59
2018-09-27T15:22:55.361Z,25.33
2018-09-27T15:25:25.677Z,25.20
2018-09-27T15:27:54.547Z,25.26
2018-09-27T15:30:23.957Z,25.31
2018-09-27T15:32:53.763Z,25.20
2018-09-27T15:35:24.529Z,25.18
2018-09-27T15:37:54.216Z,25.16
2018-09-27T15:40:23.423Z,25.10
2018-09-27T15:42:52.955Z,25.14
2018-09-27T15:45:24.531Z,25.09
2018-09-27T15:47:53.442Z,25.19
2018-09-27T15:50:22.679Z,25.02
2018-09-27T15:52:52.052Z,24.93
2018-09-27T15:55:22.363Z,24.90
2018-09-27T15:57:51.466Z,24.80
2018-09-27T16:00:21.301Z,24.72
2018-09-27T16:02:50.281Z,24.60
2018-09-27T16:05:19.334Z,24.54
2018-09-27T16:07:48.374Z,24.50
2018-09-27T16:10:18.128Z,24.40
2018-09-27T16:12:47.544Z,24.35
2018-09-27T16:15:16.474Z,24.19
2018-09-27T16:17:45.528Z,24.14
2018-09-27T16:20:14.398Z,24.09
2018-09-27T16:22:43.338Z,24.06
2018-09-27T16:25:14.912Z,23.92
2018-09-27T16:27:46.173Z,23.78
2018-09-27T16:30:15.214Z,23.71
2018-09-27T16:32:46.239Z,23.64
2018-09-27T16:35:24.173Z,23.63
2018-09-27T16:37:53.152Z,23.57
2018-09-27T16:40:22.071Z,23.49
2018-09-27T16:42:50.899Z,23.34
2018-09-27T16:45:19.763Z,23.18
2018-09-27T16:47:48.642Z,22.97
2018-09-27T16:50:17.538Z,22.74
2018-09-27T16:52:46.419Z,22.46
2018-09-27T16:55:15.218Z,22.30
2018-09-27T16:57:44.187Z,22.14
2018-09-27T17:00:13.067Z,21.87
2018-09-27T17:02:42.047Z,21.73
2018-09-27T17:05:10.919Z,21.54
2018-09-27T17:07:39.886Z,21.33
2018-09-27T17:10:09.623Z,21.07
2018-09-27T17:12:39.231Z,20.89
2018-09-27T17:15:08.455Z,20.75
2018-09-27T17:17:37.313Z,20.57
2018-09-27T17:20:06.301Z,20.43
2018-09-27T17:22:35.615Z,20.26
2018-09-27T17:25:04.602Z,20.19
2018-09-27T17:27:33.554Z,20.08
2018-09-27T17:30:02.629Z,20.01
2018-09-27T17:32:31.552Z,19.93
2018-09-27T17:35:00.437Z,19.81
2018-09-27T17:37:29.360Z,19.69
2018-09-27T17:39:58.342Z,19.57
2018-09-27T17:42:28.633Z,19.42
2018-09-27T17:44:59.215Z,19.30
2018-09-27T17:47:28.144Z,19.20
2018-09-27T17:49:57.127Z,19.14
2018-09-27T17:52:26.075Z,19.05
2018-09-27T17:54:54.885Z,18.97
2018-09-27T17:57:24.493Z,18.89
2018-09-27T17:59:54.976Z,18.80
2018-09-27T18:02:26.077Z,18.67
2018-09-27T18:04:55.120Z,18.53
2018-09-27T18:07:24.616Z,18.41
2018-09-27T18:09:53.553Z,18.32
2018-09-27T18:12:22.499Z,18.22
2018-09-27T18:14:51.262Z,18.10
2018-09-27T18:17:21.915Z,17.97
2018-09-27T18:19:50.860Z,17.84
2018-09-27T18:22:19.685Z,17.73
2018-09-27T18:24:48.471Z,17.69
2018-09-27T18:27:17.406Z,17.59
2018-09-27T18:29:46.307Z,17.51
2018-09-27T18:32:15.180Z,17.43
2018-09-27T18:34:44.761Z,17.39
2018-09-27T18:37:13.644Z,17.28
2018-09-27T18:39:42.442Z,17.20
2018-09-27T18:42:11.381Z,17.11
2018-09-27T18:44:42.096Z,17.06
2018-09-27T18:47:11.464Z,17.01
2018-09-27T18:49:40.268Z,16.97
2018-09-27T18:52:09.269Z,16.96
2018-09-27T18:54:38.140Z,16.94
2018-09-27T18:57:07.113Z,16.94
2018-09-27T18:59:36.036Z,16.95
2018-09-27T19:02:05.598Z,17.03
2018-09-27T19:04:34.459Z,17.07
2018-09-27T19:07:03.380Z,17.03
2018-09-27T19:09:33.772Z,17.03
2018-09-27T19:12:02.746Z,17.08
2018-09-27T19:14:31.701Z,17.31
2018-09-27T19:17:00.782Z,17.50
2018-09-27T19:19:30.162Z,17.60
2018-09-27T19:21:59.842Z,17.64
2018-09-27T19:24:28.726Z,17.68
2018-09-27T19:26:57.683Z,17.62
2018-09-27T19:29:26.500Z,17.54
2018-09-27T19:31:55.347Z,17.50
2018-09-27T19:34:24.321Z,17.43
2018-09-27T19:36:54.172Z,17.24
2018-09-27T19:39:23.170Z,17.09
2018-09-27T19:41:52.169Z,16.88
2018-09-27T19:44:21.661Z,16.72
2018-09-27T19:46:51.458Z,16.50
2018-09-27T19:49:20.754Z,16.39
2018-09-27T19:51:50.631Z,16.28
2018-09-27T19:54:19.766Z,16.22
2018-09-27T19:56:49.316Z,16.19
2018-09-27T19:59:29.028Z,16.19
2018-09-27T20:01:58.395Z,16.11
2018-09-27T20:04:27.339Z,16.08
2018-09-27T20:06:56.252Z,16.02
2018-09-27T20:09:26.941Z,15.94
2018-09-27T20:11:56.950Z,15.90
2018-09-27T20:14:32.128Z,15.84
2018-09-27T20:17:01.686Z,15.80
2018-09-27T20:19:33.491Z,15.72
2018-09-27T20:22:03.028Z,15.63
2018-09-27T20:24:32.635Z,15.62
2018-09-27T20:27:01.567Z,15.53
2018-09-27T20:29:30.703Z,15.43
2018-09-27T20:31:59.725Z,15.31
2018-09-27T20:34:29.295Z,15.21
2018-09-27T20:36:58.214Z,15.10
2018-09-27T20:39:27.075Z,14.98
2018-09-27T20:41:56.456Z,14.87
2018-09-27T20:44:25.520Z,14.78
2018-09-27T20:46:54.500Z,14.69
2018-09-27T20:49:23.374Z,14.60
2018-09-27T20:51:52.382Z,14.53
2018-09-27T20:54:22.244Z,14.45
2018-09-27T20:56:51.013Z,14.39
2018-09-27T20:59:20.194Z,14.36
2018-09-27T21:01:50.442Z,14.35
2018-09-27T21:04:19.552Z,14.23
2018-09-27T21:06:48.628Z,14.13
2018-09-27T21:09:17.783Z,14.07
2018-09-27T21:11:47.432Z,14.00
2018-09-27T21:14:16.251Z,13.97
2018-09-27T21:16:45.055Z,13.89
2018-09-27T21:19:14.044Z,13.84
2018-09-27T21:21:42.906Z,13.80
2018-09-27T21:24:11.872Z,13.83
2018-09-27T21:26:40.698Z,13.82
2018-09-27T21:29:09.788Z,13.89
2018-09-27T21:31:38.662Z,13.88
2018-09-27T21:36:58.895Z,13.84
2018-09-27T21:39:27.826Z,13.75
2018-09-27T21:41:56.598Z,13.69
2018-09-27T21:44:25.463Z,13.59
2018-09-27T21:46:54.316Z,13.60
2018-09-27T21:49:23.410Z,13.46
2018-09-27T21:51:52.757Z,13.41
2018-09-27T21:54:21.820Z,13.37
2018-09-27T21:56:51.306Z,13.37
2018-09-27T21:59:21.359Z,13.36
2018-09-27T22:01:50.906Z,13.37
2018-09-27T22:04:19.903Z,13.38
2018-09-27T22:06:49.784Z,13.43
2018-09-27T22:09:19.080Z,13.47
2018-09-27T22:11:49.154Z,13.57
2018-09-27T22:14:17.965Z,13.48
2018-09-27T22:16:46.785Z,13.48
2018-09-27T22:19:15.521Z,13.41
2018-09-27T22:21:44.349Z,13.27
2018-09-27T22:24:13.636Z,13.21
2018-09-27T22:26:42.502Z,13.14
2018-09-27T22:29:11.305Z,13.03
2018-09-27T22:31:40.179Z,12.99
2018-09-27T22:34:09.025Z,13.09
2018-09-27T22:36:37.862Z,13.06
2018-09-27T22:39:07.937Z,13.11
2018-09-27T22:41:38.201Z,13.22
2018-09-27T22:44:07.108Z,13.33
2018-09-27T22:46:35.892Z,13.29
2018-09-27T22:49:05.370Z,13.17
2018-09-27T22:51:40.377Z,12.99
2018-09-27T22:54:09.756Z,12.98
2018-09-27T22:56:38.587Z,12.94
2018-09-27T22:59:07.417Z,12.82
2018-09-27T23:01:36.214Z,12.69
2018-09-27T23:04:05.114Z,12.67
2018-09-27T23:06:34.259Z,12.60
2018-09-27T23:09:03.171Z,12.50
2018-09-27T23:11:33.045Z,12.38
2018-09-27T23:14:03.624Z,12.26
2018-09-27T23:16:32.463Z,12.16
2018-09-27T23:19:01.959Z,12.10
2018-09-27T23:21:30.733Z,12.03
2018-09-27T23:23:59.544Z,12.01
2018-09-27T23:26:28.801Z,11.91
2018-09-27T23:28:57.685Z,11.81
2018-09-27T23:31:26.998Z,11.73
2018-09-27T23:33:55.909Z,11.61
2018-09-27T23:36:24.821Z,11.50
2018-09-27T23:38:53.737Z,11.36
2018-09-27T23:41:34.820Z,11.24
2018-09-27T23:44:03.561Z,11.04
2018-09-27T23:46:32.310Z,10.89
2018-09-27T23:49:01.195Z,10.74
2018-09-27T23:51:30.275Z,10.58
2018-09-27T23:53:59.163Z,10.55
2018-09-27T23:56:28.286Z,10.52
2018-09-27T23:58:57.194Z,10.43
